createdAt,value
2018-09-08T00:00:13.104Z,16.00
2018-09-08T00:02:41.585Z,16.00
2018-09-08T00:05:10.059Z,15.90
2018-09-08T00:07:39.280Z,15.80
2018-09-08T00:10:09.845Z,15.60
2018-09-08T00:12:38.366Z,15.50
2018-09-08T00:15:11.994Z,15.40
2018-09-08T00:17:45.908Z,15.30
2018-09-08T00:20:19.633Z,15.20
2018-09-08T00:22:53.607Z,15.20
2018-09-08T00:25:27.405Z,15.10
2018-09-08T00:28:00.144Z,15.10
2018-09-08T00:30:28.649Z,15.10
2018-09-08T00:32:57.126Z,15.00
2018-09-08T00:35:25.576Z,15.00
2018-09-08T00:37:54.017Z,14.90
2018-09-08T00:40:22.513Z,15.00
2018-09-08T00:42:50.962Z,15.00
2018-09-08T00:45:19.473Z,15.00
2018-09-08T00:47:47.949Z,15.00
2018-09-08T00:50:16.457Z,15.00
2018-09-08T00:52:44.989Z,15.00
2018-09-08T00:55:13.450Z,15.00
2018-09-08T00:57:41.922Z,15.00
2018-09-08T01:00:10.380Z,15.00
2018-09-08T01:02:38.927Z,15.00
2018-09-08T01:05:07.404Z,15.00
2018-09-08T01:07:35.896Z,15.00
2018-09-08T01:10:04.382Z,15.00
2018-09-08T01:12:32.857Z,15.00
2018-09-08T01:15:01.679Z,15.00
2018-09-08T01:17:30.141Z,15.10
2018-09-08T01:19:58.577Z,15.10
2018-09-08T01:22:27.550Z,15.30
2018-09-08T01:24:56.025Z,15.30
2018-09-08T01:27:24.529Z,15.30
2018-09-08T01:29:52.981Z,15.20
2018-09-08T01:32:21.430Z,15.00
2018-09-08T01:34:50.853Z,14.90
2018-09-08T01:37:19.333Z,14.90
2018-09-08T01:39:47.799Z,14.90
2018-09-08T01:42:16.259Z,14.80
2018-09-08T01:44:44.813Z,14.80
2018-09-08T01:47:13.280Z,14.70
2018-09-08T01:49:41.757Z,14.70
2018-09-08T01:52:10.236Z,14.80
2018-09-08T01:54:38.787Z,14.80
2018-09-08T01:57:07.328Z,14.80
2018-09-08T01:59:35.796Z,14.80
2018-09-08T02:02:04.282Z,14.80
2018-09-08T02:04:32.822Z,14.70
2018-09-08T02:07:01.276Z,14.70
2018-09-08T02:09:29.709Z,14.60
2018-09-08T02:11:58.210Z,14.60
2018-09-08T02:14:26.735Z,14.50
2018-09-08T02:16:55.215Z,14.60
2018-09-08T02:19:23.668Z,14.50
2018-09-08T02:21:52.110Z,14.50
2018-09-08T02:24:20.575Z,14.50
2018-09-08T02:26:49.028Z,14.50
2018-09-08T02:29:17.454Z,14.40
2018-09-08T02:31:45.912Z,14.30
2018-09-08T02:34:14.394Z,14.30
2018-09-08T02:36:42.912Z,14.30
2018-09-08T02:39:11.366Z,14.30
2018-09-08T02:41:39.812Z,14.20
2018-09-08T02:44:08.665Z,14.20
2018-09-08T02:46:37.109Z,14.20
2018-09-08T02:49:05.903Z,14.10
2018-09-08T02:51:33.226Z,14.10
2018-09-08T02:54:00.565Z,14.10
2018-09-08T02:56:27.889Z,14.10
2018-09-08T02:58:55.220Z,14.10
2018-09-08T03:01:22.567Z,14.00
2018-09-08T03:03:49.933Z,14.00
2018-09-08T03:06:17.270Z,14.00
2018-09-08T03:08:44.621Z,13.90
2018-09-08T03:11:11.941Z,14.00
2018-09-08T03:13:39.292Z,13.90
2018-09-08T03:16:06.799Z,13.90
2018-09-08T03:18:34.157Z,13.90
2018-09-08T03:21:01.517Z,13.90
2018-09-08T03:23:28.855Z,13.90
2018-09-08T03:25:56.238Z,13.90
2018-09-08T03:28:23.562Z,13.90
2018-09-08T03:30:50.908Z,14.00
2018-09-08T03:33:18.261Z,14.00
2018-09-08T03:35:45.598Z,14.00
2018-09-08T03:38:12.955Z,14.00
2018-09-08T03:40:40.280Z,14.00
2018-09-08T03:43:07.610Z,13.90
2018-09-08T03:45:34.945Z,13.90
2018-09-08T03:48:02.286Z,13.80
2018-09-08T03:50:29.619Z,13.80
2018-09-08T03:52:56.982Z,13.80
2018-09-08T03:55:24.328Z,13.80
2018-09-08T03:57:51.671Z,13.80
2018-09-08T04:00:19.025Z,13.80
2018-09-08T04:02:47.481Z,13.80
2018-09-08T04:05:15.893Z,13.80
2018-09-08T04:07:44.344Z,13.80
2018-09-08T04:10:12.756Z,13.70
2018-09-08T04:12:41.293Z,13.70
2018-09-08T04:15:09.750Z,13.70
2018-09-08T04:17:38.174Z,13.70
2018-09-08T04:20:06.698Z,13.70
2018-09-08T04:22:35.949Z,13.70
2018-09-08T04:25:05.922Z,13.70
2018-09-08T04:27:34.365Z,13.70
2018-09-08T04:30:02.842Z,13.80
2018-09-08T04:32:31.378Z,13.90
2018-09-08T04:34:59.822Z,14.00
2018-09-08T04:37:28.280Z,14.00
2018-09-08T04:39:56.723Z,14.10
2018-09-08T04:42:25.233Z,14.10
2018-09-08T04:44:53.695Z,14.10
2018-09-08T04:47:22.131Z,14.10
2018-09-08T04:49:50.541Z,14.00
2018-09-08T04:52:18.975Z,13.90
2018-09-08T04:54:47.548Z,13.90
2018-09-08T04:57:16.013Z,14.00
2018-09-08T04:59:44.482Z,14.00
2018-09-08T05:02:12.893Z,14.00
2018-09-08T05:04:41.396Z,14.00
2018-09-08T05:07:09.847Z,14.00
2018-09-08T05:09:38.250Z,14.00
2018-09-08T05:12:06.702Z,14.10
2018-09-08T05:14:35.189Z,14.10
2018-09-08T05:17:03.685Z,14.10
2018-09-08T05:19:32.109Z,14.10
2018-09-08T05:22:00.599Z,14.20
2018-09-08T05:24:29.037Z,14.20
2018-09-08T05:26:57.501Z,14.20
2018-09-08T05:29:25.956Z,14.20
2018-09-08T05:31:54.381Z,14.20
2018-09-08T05:34:22.844Z,14.20
2018-09-08T05:36:51.267Z,14.30
2018-09-08T05:39:19.722Z,14.40
2018-09-08T05:41:48.184Z,14.40
2018-09-08T05:44:16.655Z,14.40
2018-09-08T05:46:45.234Z,14.40
2018-09-08T05:49:13.683Z,14.40
2018-09-08T05:51:42.085Z,14.50
2018-09-08T05:54:10.616Z,14.60
2018-09-08T05:56:39.101Z,14.60
2018-09-08T05:59:07.526Z,14.60
2018-09-08T06:01:35.977Z,14.60
2018-09-08T06:04:04.512Z,14.70
2018-09-08T06:06:32.943Z,14.70
2018-09-08T06:09:01.391Z,14.80
2018-09-08T06:11:29.818Z,14.80
2018-09-08T06:13:58.332Z,14.80
2018-09-08T06:16:26.775Z,15.00
2018-09-08T06:18:55.214Z,15.10
2018-09-08T06:21:23.675Z,15.20
2018-09-08T06:23:52.155Z,15.30
2018-09-08T06:26:20.600Z,15.40
2018-09-08T06:28:49.042Z,15.50
2018-09-08T06:31:17.485Z,15.60
2018-09-08T06:33:46.097Z,15.70
2018-09-08T06:36:14.497Z,15.70
2018-09-08T06:38:42.942Z,15.80
2018-09-08T06:41:11.363Z,15.70
2018-09-08T06:43:39.845Z,15.70
2018-09-08T06:46:08.317Z,15.70
2018-09-08T06:48:36.789Z,15.60
2018-09-08T06:51:05.502Z,15.60
2018-09-08T06:53:33.949Z,15.60
2018-09-08T06:56:02.383Z,15.60
2018-09-08T06:58:30.831Z,15.60
2018-09-08T07:00:59.333Z,15.60
2018-09-08T07:03:27.893Z,15.60
2018-09-08T07:05:56.279Z,15.80
2018-09-08T07:08:24.758Z,16.10
2018-09-08T07:10:53.235Z,16.40
2018-09-08T07:13:21.685Z,16.60
2018-09-08T07:15:50.121Z,16.80
2018-09-08T07:18:18.601Z,16.80
2018-09-08T07:20:47.026Z,16.90
2018-09-08T07:23:15.530Z,16.90
2018-09-08T07:25:43.969Z,16.90
2018-09-08T07:28:12.369Z,16.80
2018-09-08T07:30:40.826Z,16.80
2018-09-08T07:33:09.371Z,16.70
2018-09-08T07:35:37.817Z,16.80
2018-09-08T07:38:06.408Z,16.80
2018-09-08T07:40:34.899Z,16.80
2018-09-08T07:43:03.406Z,16.80
2018-09-08T07:45:38.080Z,16.90
2018-09-08T07:48:06.663Z,16.90
2018-09-08T07:50:35.183Z,16.80
2018-09-08T07:53:03.653Z,16.70
2018-09-08T07:55:32.133Z,16.60
2018-09-08T07:58:00.894Z,16.70
2018-09-08T08:00:29.382Z,16.70
2018-09-08T08:02:57.964Z,16.70
2018-09-08T08:05:26.385Z,16.60
2018-09-08T08:07:54.848Z,16.60
2018-09-08T08:10:23.311Z,16.70
2018-09-08T08:12:51.802Z,16.70
2018-09-08T08:15:21.214Z,16.70
2018-09-08T08:17:49.646Z,16.70
2018-09-08T08:20:18.097Z,16.80
2018-09-08T08:22:46.581Z,16.90
2018-09-08T08:25:15.106Z,16.90
2018-09-08T08:27:43.624Z,17.00
2018-09-08T08:30:12.045Z,17.10
2018-09-08T08:32:40.486Z,17.20
2018-09-08T08:35:08.959Z,17.40
2018-09-08T08:37:37.481Z,17.60
2018-09-08T08:40:05.938Z,17.80
2018-09-08T08:42:34.461Z,17.70
2018-09-08T08:45:03.030Z,17.60
2018-09-08T08:47:31.502Z,17.50
2018-09-08T08:50:11.271Z,17.40
2018-09-08T08:52:50.920Z,17.40
2018-09-08T08:55:19.349Z,17.50
2018-09-08T08:57:47.781Z,17.50
2018-09-08T09:00:16.529Z,17.40
2018-09-08T09:02:45.080Z,17.40
2018-09-08T09:05:13.555Z,17.30
2018-09-08T09:07:42.150Z,17.20
2018-09-08T09:10:10.713Z,17.20
2018-09-08T09:12:39.242Z,17.20
2018-09-08T09:15:08.032Z,17.20
2018-09-08T09:17:37.110Z,17.20
2018-09-08T09:20:16.906Z,17.30
2018-09-08T09:22:56.542Z,17.40
2018-09-08T09:25:24.994Z,17.40
2018-09-08T09:27:53.414Z,17.50
2018-09-08T09:30:22.339Z,17.70
2018-09-08T09:32:50.847Z,18.00
2018-09-08T09:35:20.534Z,18.50
2018-09-08T09:37:48.996Z,18.90
2018-09-08T09:40:18.590Z,19.20
2018-09-08T09:42:47.017Z,19.40
2018-09-08T09:45:15.502Z,19.50
2018-09-08T09:47:43.947Z,19.50
2018-09-08T09:50:13.161Z,19.30
2018-09-08T09:52:41.881Z,19.20
2018-09-08T09:55:10.453Z,19.00
2018-09-08T09:57:39.009Z,19.00
2018-09-08T10:00:08.922Z,19.00
2018-09-08T10:02:45.613Z,19.10
2018-09-08T10:05:16.647Z,19.10
2018-09-08T10:07:45.301Z,19.00
2018-09-08T10:10:15.022Z,18.80
2018-09-08T10:12:43.596Z,18.60
2018-09-08T10:15:12.057Z,18.50
2018-09-08T10:17:41.414Z,18.30
2018-09-08T10:20:11.549Z,18.20
2018-09-08T10:22:40.096Z,18.20
2018-09-08T10:25:10.369Z,18.20
2018-09-08T10:27:38.814Z,18.40
2018-09-08T10:30:08.490Z,18.50
2018-09-08T10:32:36.985Z,18.60
2018-09-08T10:35:05.491Z,18.60
2018-09-08T10:37:33.915Z,18.80
2018-09-08T10:40:02.377Z,18.90
2018-09-08T10:42:31.012Z,19.00
2018-09-08T10:44:59.471Z,19.00
2018-09-08T10:47:27.955Z,19.10
2018-09-08T10:49:56.422Z,19.10
2018-09-08T10:52:41.666Z,19.20
2018-09-08T10:55:10.081Z,19.30
2018-09-08T10:57:38.517Z,19.40
2018-09-08T11:00:07.616Z,19.40
2018-09-08T11:02:36.371Z,19.40
2018-09-08T11:05:04.775Z,19.50
2018-09-08T11:07:33.226Z,19.60
2018-09-08T11:10:01.699Z,19.70
2018-09-08T11:12:30.549Z,19.80
2018-09-08T11:14:58.984Z,19.90
2018-09-08T11:17:27.428Z,20.00
2018-09-08T11:19:55.881Z,20.20
2018-09-08T11:22:24.440Z,20.20
2018-09-08T11:24:52.875Z,20.30
2018-09-08T11:27:21.307Z,20.30
2018-09-08T11:29:49.762Z,20.30
2018-09-08T11:32:18.196Z,20.30
2018-09-08T11:34:46.667Z,20.30
2018-09-08T11:37:15.102Z,20.30
2018-09-08T11:39:43.598Z,20.50
2018-09-08T11:42:12.023Z,20.70
2018-09-08T11:44:40.594Z,20.90
2018-09-08T11:47:09.063Z,20.80
2018-09-08T11:49:37.510Z,20.60
2018-09-08T11:52:06.074Z,20.30
2018-09-08T11:54:34.671Z,20.20
2018-09-08T11:57:03.147Z,20.10
2018-09-08T11:59:31.663Z,20.00
2018-09-08T12:02:00.147Z,19.90
2018-09-08T12:04:28.656Z,19.90
2018-09-08T12:06:57.115Z,19.70
2018-09-08T12:09:25.529Z,19.60
2018-09-08T12:11:53.942Z,19.50
2018-09-08T12:14:22.407Z,19.60
2018-09-08T12:16:50.865Z,19.80
2018-09-08T12:19:19.300Z,20.00
2018-09-08T12:21:47.763Z,20.20
2018-09-08T12:24:16.252Z,20.10
2018-09-08T12:26:44.766Z,20.10
2018-09-08T12:29:13.198Z,20.20
2018-09-08T12:31:41.650Z,20.30
2018-09-08T12:34:10.186Z,20.20
2018-09-08T12:36:38.621Z,19.90
2018-09-08T12:39:07.879Z,19.70
2018-09-08T12:41:36.371Z,19.50
2018-09-08T12:44:04.835Z,19.50
2018-09-08T12:46:33.274Z,19.50
2018-09-08T12:49:01.721Z,19.40
2018-09-08T12:51:30.150Z,19.30
2018-09-08T12:53:58.622Z,19.30
2018-09-08T12:56:27.094Z,19.30
2018-09-08T12:58:55.582Z,19.50
2018-09-08T13:01:24.089Z,19.60
2018-09-08T13:03:52.571Z,19.60
2018-09-08T13:06:21.003Z,19.70
2018-09-08T13:08:49.446Z,19.70
2018-09-08T13:11:17.873Z,19.60
2018-09-08T13:13:46.394Z,19.40
2018-09-08T13:16:14.909Z,19.20
2018-09-08T13:18:43.445Z,19.10
2018-09-08T13:21:11.918Z,19.10
2018-09-08T13:23:40.549Z,19.10
2018-09-08T13:26:09.196Z,19.20
2018-09-08T13:28:37.712Z,19.30
2018-09-08T13:31:06.210Z,19.40
2018-09-08T13:33:34.840Z,19.40
2018-09-08T13:36:03.306Z,19.40
2018-09-08T13:38:31.984Z,19.40
2018-09-08T13:41:00.495Z,19.40
2018-09-08T13:43:29.039Z,19.40
2018-09-08T13:45:57.515Z,19.50
2018-09-08T13:48:25.940Z,19.60
2018-09-08T13:50:54.381Z,19.70
2018-09-08T13:53:22.842Z,19.70
2018-09-08T13:55:51.303Z,19.70
2018-09-08T13:58:19.766Z,19.90
2018-09-08T14:00:48.227Z,20.10
2018-09-08T14:03:16.761Z,20.20
2018-09-08T14:05:45.226Z,20.10
2018-09-08T14:08:15.547Z,20.20
2018-09-08T14:10:44.933Z,20.30
2018-09-08T14:13:13.465Z,20.20
2018-09-08T14:15:41.970Z,20.20
2018-09-08T14:18:10.486Z,20.10
2018-09-08T14:20:38.947Z,20.20
2018-09-08T14:23:07.562Z,20.50
2018-09-08T14:25:36.116Z,20.90
2018-09-08T14:28:04.578Z,21.40
2018-09-08T14:30:33.051Z,21.40
2018-09-08T14:33:01.510Z,21.10
2018-09-08T14:35:29.959Z,20.80
2018-09-08T14:37:58.451Z,20.50
2018-09-08T14:40:26.954Z,20.50
2018-09-08T14:42:55.586Z,20.40
2018-09-08T14:45:24.038Z,20.30
2018-09-08T14:47:52.645Z,20.10
2018-09-08T14:50:21.581Z,19.90
2018-09-08T14:52:50.090Z,19.80
2018-09-08T14:55:18.522Z,19.60
2018-09-08T14:57:47.016Z,19.50
2018-09-08T15:00:15.463Z,19.40
2018-09-08T15:02:44.017Z,19.30
2018-09-08T15:05:12.427Z,19.30
2018-09-08T15:07:40.886Z,19.30
2018-09-08T15:10:09.302Z,19.60
2018-09-08T15:12:37.851Z,19.90
2018-09-08T15:15:06.834Z,20.20
2018-09-08T15:17:35.391Z,20.60
2018-09-08T15:20:03.838Z,20.70
2018-09-08T15:22:32.405Z,20.70
2018-09-08T15:25:00.830Z,20.50
2018-09-08T15:27:29.298Z,20.30
2018-09-08T15:29:57.721Z,20.10
2018-09-08T15:32:26.199Z,19.90
2018-09-08T15:34:54.668Z,19.80
2018-09-08T15:37:23.104Z,19.60
2018-09-08T15:39:51.603Z,19.60
2018-09-08T15:42:20.067Z,19.50
2018-09-08T15:44:48.511Z,19.50
2018-09-08T15:47:16.935Z,19.40
2018-09-08T15:49:45.432Z,19.40
2018-09-08T15:52:13.897Z,19.40
2018-09-08T15:54:42.429Z,19.30
2018-09-08T15:57:10.905Z,19.20
2018-09-08T15:59:39.367Z,19.20
2018-09-08T16:02:07.851Z,19.20
2018-09-08T16:04:36.429Z,19.30
2018-09-08T16:07:04.875Z,19.40
2018-09-08T16:09:33.342Z,19.30
2018-09-08T16:12:01.815Z,19.20
2018-09-08T16:14:30.380Z,19.10
2018-09-08T16:16:58.769Z,18.90
2018-09-08T16:19:27.217Z,18.80
2018-09-08T16:21:55.631Z,18.70
2018-09-08T16:24:24.163Z,18.60
2018-09-08T16:26:52.597Z,18.70
2018-09-08T16:29:21.075Z,18.70
2018-09-08T16:31:49.507Z,18.70
2018-09-08T16:34:18.063Z,18.70
2018-09-08T16:36:46.482Z,18.70
2018-09-08T16:39:14.951Z,18.70
2018-09-08T16:41:43.455Z,18.70
2018-09-08T16:44:11.987Z,18.60
2018-09-08T16:46:40.385Z,18.40
2018-09-08T16:49:08.826Z,18.30
2018-09-08T16:51:37.268Z,18.20
2018-09-08T16:54:06.637Z,18.20
2018-09-08T16:56:35.093Z,18.20
2018-09-08T16:59:03.550Z,18.30
2018-09-08T17:01:31.970Z,18.30
2018-09-08T17:04:00.437Z,18.40
2018-09-08T17:06:28.929Z,18.40
2018-09-08T17:08:57.355Z,18.30
2018-09-08T17:11:25.770Z,18.20
2018-09-08T17:13:54.262Z,18.10
2018-09-08T17:16:22.687Z,18.00
2018-09-08T17:18:51.135Z,17.90
2018-09-08T17:21:19.553Z,17.80
2018-09-08T17:23:48.082Z,17.70
2018-09-08T17:26:16.554Z,17.70
2018-09-08T17:28:45.050Z,17.60
2018-09-08T17:31:13.798Z,17.60
2018-09-08T17:33:42.352Z,17.60
2018-09-08T17:36:10.790Z,17.60
2018-09-08T17:38:39.250Z,17.60
2018-09-08T17:41:07.785Z,17.60
2018-09-08T17:43:36.235Z,17.60
2018-09-08T17:46:04.882Z,17.50
2018-09-08T17:48:33.318Z,17.50
2018-09-08T17:51:01.737Z,17.50
2018-09-08T17:53:30.221Z,17.50
2018-09-08T17:55:58.708Z,17.50
2018-09-08T17:58:27.282Z,17.50
2018-09-08T18:00:55.747Z,17.50
2018-09-08T18:03:24.223Z,17.40
2018-09-08T18:05:52.688Z,17.30
2018-09-08T18:08:25.325Z,17.30
2018-09-08T18:10:54.255Z,17.20
2018-09-08T18:13:23.414Z,17.20
2018-09-08T18:15:52.044Z,17.20
2018-09-08T18:18:20.894Z,17.10
2018-09-08T18:20:49.334Z,17.00
2018-09-08T18:23:17.830Z,17.00
2018-09-08T18:25:46.316Z,17.00
2018-09-08T18:28:14.771Z,16.90
2018-09-08T18:30:43.247Z,16.90
2018-09-08T18:33:11.763Z,16.90
2018-09-08T18:35:40.306Z,16.80
2018-09-08T18:38:08.821Z,16.70
2018-09-08T18:40:37.316Z,16.70
2018-09-08T18:43:05.890Z,16.60
2018-09-08T18:45:34.366Z,16.60
2018-09-08T18:48:02.961Z,16.50
2018-09-08T18:50:31.445Z,16.50
2018-09-08T18:52:59.947Z,16.40
2018-09-08T18:55:28.430Z,16.40
2018-09-08T18:57:56.877Z,16.40
2018-09-08T19:00:25.334Z,16.30
2018-09-08T19:02:53.797Z,16.30
2018-09-08T19:05:22.256Z,16.30
2018-09-08T19:07:50.718Z,16.30
2018-09-08T19:10:19.183Z,16.30
2018-09-08T19:12:47.745Z,16.30
2018-09-08T19:15:17.321Z,16.20
2018-09-08T19:17:46.093Z,16.20
2018-09-08T19:20:19.732Z,16.10
2018-09-08T19:22:48.251Z,16.10
2018-09-08T19:25:16.668Z,16.20
2018-09-08T19:27:45.112Z,16.30
2018-09-08T19:30:13.607Z,16.30
2018-09-08T19:32:42.123Z,16.40
2018-09-08T19:35:15.861Z,16.40
2018-09-08T19:37:44.323Z,16.40
2018-09-08T19:40:18.082Z,16.30
2018-09-08T19:42:46.571Z,16.30
2018-09-08T19:45:15.015Z,16.20
2018-09-08T19:47:48.910Z,16.10
2018-09-08T19:50:17.355Z,16.20
2018-09-08T19:52:51.254Z,16.20
2018-09-08T19:55:20.183Z,16.30
2018-09-08T19:57:53.917Z,16.30
2018-09-08T20:00:22.357Z,16.40
2018-09-08T20:02:50.866Z,16.40
2018-09-08T20:05:19.281Z,16.50
2018-09-08T20:07:47.714Z,16.60
2018-09-08T20:10:16.218Z,16.50
2018-09-08T20:12:44.711Z,16.50
2018-09-08T20:15:13.127Z,16.50
2018-09-08T20:17:41.583Z,16.50
2018-09-08T20:20:10.000Z,16.40
2018-09-08T20:22:39.153Z,16.40
2018-09-08T20:25:07.713Z,16.30
2018-09-08T20:27:36.146Z,16.30
2018-09-08T20:30:04.632Z,16.20
2018-09-08T20:32:33.166Z,16.10
2018-09-08T20:35:01.635Z,16.10
2018-09-08T20:37:30.062Z,16.00
2018-09-08T20:39:58.470Z,16.00
2018-09-08T20:42:26.983Z,16.00
2018-09-08T20:44:55.422Z,15.90
2018-09-08T20:47:23.838Z,15.90
2018-09-08T20:49:53.294Z,15.90
2018-09-08T20:52:21.788Z,15.90
2018-09-08T20:54:50.267Z,15.90
2018-09-08T20:57:18.670Z,15.90
2018-09-08T20:59:47.089Z,16.00
2018-09-08T21:02:15.558Z,15.90
2018-09-08T21:04:50.595Z,15.90
2018-09-08T21:07:19.095Z,15.90
2018-09-08T21:09:47.711Z,15.80
2018-09-08T21:12:17.855Z,15.80
2018-09-08T21:14:46.832Z,15.70
2018-09-08T21:17:16.153Z,15.70
2018-09-08T21:19:44.620Z,15.70
2018-09-08T21:22:13.088Z,15.60
2018-09-08T21:24:42.586Z,15.60
2018-09-08T21:27:11.265Z,15.60
2018-09-08T21:29:39.760Z,15.60
2018-09-08T21:32:08.329Z,15.60
2018-09-08T21:34:38.554Z,15.60
2018-09-08T21:37:07.351Z,15.60
2018-09-08T21:39:35.975Z,15.60
2018-09-08T21:42:04.442Z,15.60
2018-09-08T21:44:32.991Z,15.50
2018-09-08T21:47:05.911Z,15.60
2018-09-08T21:49:31.346Z,15.60
2018-09-08T21:51:59.789Z,15.60
2018-09-08T21:54:28.358Z,15.60
2018-09-08T21:56:56.937Z,15.60
2018-09-08T21:59:25.421Z,15.70
2018-09-08T22:01:53.887Z,15.70
2018-09-08T22:04:22.349Z,15.70
2018-09-08T22:06:50.851Z,15.70
2018-09-08T22:09:19.470Z,15.70
2018-09-08T22:11:48.145Z,15.70
2018-09-08T22:14:16.759Z,15.70
2018-09-08T22:16:45.330Z,15.70
2018-09-08T22:19:13.916Z,15.70
2018-09-08T22:21:42.862Z,15.70
2018-09-08T22:24:12.964Z,15.70
2018-09-08T22:26:41.833Z,15.70
2018-09-08T22:29:11.950Z,15.70
2018-09-08T22:31:41.939Z,15.70
2018-09-08T22:34:10.549Z,15.60
2018-09-08T22:36:39.007Z,15.70
2018-09-08T22:39:08.241Z,15.70
2018-09-08T22:41:36.670Z,15.60
2018-09-08T22:44:05.131Z,15.60
2018-09-08T22:46:33.541Z,15.70
2018-09-08T22:49:01.973Z,15.70
2018-09-08T22:51:30.424Z,15.70
2018-09-08T22:53:58.945Z,15.70
2018-09-08T22:56:27.375Z,15.70
2018-09-08T22:58:55.838Z,15.70
2018-09-08T23:01:24.270Z,15.70
2018-09-08T23:03:52.772Z,15.70
2018-09-08T23:06:21.181Z,15.70
2018-09-08T23:08:49.606Z,15.70
2018-09-08T23:11:18.025Z,15.70
2018-09-08T23:13:46.507Z,15.70
2018-09-08T23:16:14.945Z,15.70
2018-09-08T23:18:43.358Z,15.70
2018-09-08T23:21:11.825Z,15.80
2018-09-08T23:23:40.328Z,15.80
2018-09-08T23:26:08.864Z,15.90
2018-09-08T23:28:37.339Z,15.90
2018-09-08T23:31:05.778Z,15.90
2018-09-08T23:33:34.346Z,15.90
2018-09-08T23:36:02.969Z,15.90
2018-09-08T23:38:31.406Z,15.90
2018-09-08T23:40:59.859Z,16.00
2018-09-08T23:43:28.409Z,15.90
2018-09-08T23:45:56.824Z,16.00
2018-09-08T23:48:25.277Z,16.00
2018-09-08T23:50:53.696Z,16.00
2018-09-08T23:53:22.182Z,16.00
2018-09-08T23:55:50.625Z,16.00
2018-09-08T23:58:19.050Z,16.10
